Time;durP1;ratioP1;P1;durP2;ratioP2;P2;SDS_P1;SDS_P2;PMS_P1;PMS_P2;Temp;Humidity;BMP_temperature;BMP_pressure;BME280_temperature;BME280_humidity;BME280_pressure;Samples;Min_cycle;Max_cycle;Signal;HPM_P1;HPM_P2
2023/12/30 00:00:10;;;;;;;1.60;1.10;;;9.10;98.20;;;;;;6119808;23;20832;-79
2023/12/30 00:02:37;;;;;;;1.60;1.20;;;9.10;98.20;;;;;;6084470;23;20490;-79
2023/12/30 00:05:04;;;;;;;1.60;1.20;;;9.10;98.20;;;;;;6118776;23;20508;-81
2023/12/30 00:07:31;;;;;;;1.60;1.20;;;9.10;98.20;;;;;;6087289;23;20879;-80
2023/12/30 00:09:58;;;;;;;1.60;1.20;;;9.10;98.20;;;;;;6121085;23;20539;-79
2023/12/30 00:12:24;;;;;;;1.60;1.20;;;9.10;98.20;;;;;;6089395;23;20469;-80
2023/12/30 00:14:53;;;;;;;1.60;1.10;;;9.10;98.20;;;;;;6118461;23;20418;-79
2023/12/30 00:17:19;;;;;;;1.60;1.20;;;9.10;98.20;;;;;;6088518;23;20542;-81
2023/12/30 00:19:46;;;;;;;1.60;1.10;;;9.10;98.20;;;;;;6117250;23;20536;-81
2023/12/30 00:22:13;;;;;;;1.60;1.20;;;9.10;98.20;;;;;;6090930;23;20450;-81
2023/12/30 00:24:42;;;;;;;1.60;1.10;;;9.10;98.20;;;;;;6126259;23;20426;-79
2023/12/30 00:27:09;;;;;;;1.60;1.20;;;9.10;98.20;;;;;;6091082;23;21009;-80
2023/12/30 00:29:39;;;;;;;1.60;1.20;;;9.10;98.20;;;;;;6115694;23;20487;-82
2023/12/30 00:32:08;;;;;;;1.60;1.20;;;9.10;98.20;;;;;;6091865;23;20468;-81
2023/12/30 00:34:35;;;;;;;1.60;1.20;;;9.10;98.20;;;;;;6110628;23;20428;-81
2023/12/30 00:37:02;;;;;;;1.60;1.13;;;9.20;98.20;;;;;;6092872;23;20545;-81
2023/12/30 00:39:29;;;;;;;1.60;1.20;;;9.10;98.20;;;;;;6114314;23;20418;-81
2023/12/30 00:41:55;;;;;;;1.60;1.20;;;9.20;98.20;;;;;;6098448;23;20485;-82
2023/12/30 00:44:24;;;;;;;1.60;1.20;;;9.20;98.20;;;;;;6110903;23;20581;-81
2023/12/30 00:46:52;;;;;;;1.60;1.20;;;9.20;98.20;;;;;;6092801;23;20502;-78
2023/12/30 00:49:20;;;;;;;1.60;1.20;;;9.20;98.20;;;;;;6120311;23;20452;-81
2023/12/30 00:51:46;;;;;;;1.60;1.10;;;9.20;98.20;;;;;;6093248;23;20894;-81
2023/12/30 00:54:13;;;;;;;1.60;1.20;;;9.30;98.20;;;;;;6111546;23;20497;-82
2023/12/30 00:56:40;;;;;;;1.60;1.20;;;9.30;98.20;;;;;;6096932;23;20534;-81
2023/12/30 00:59:07;;;;;;;1.60;1.20;;;9.30;98.20;;;;;;6108713;23;20986;-82
2023/12/30 01:01:34;;;;;;;1.60;1.10;;;9.40;98.20;;;;;;6099472;23;20475;-81
2023/12/30 01:04:01;;;;;;;1.60;1.20;;;9.40;98.20;;;;;;6108725;23;20418;-83
2023/12/30 01:06:29;;;;;;;1.60;1.10;;;9.40;98.20;;;;;;6098289;23;20970;-81
2023/12/30 01:08:56;;;;;;;1.60;1.20;;;9.40;98.20;;;;;;6104279;23;20449;-80
2023/12/30 01:11:23;;;;;;;1.60;1.20;;;9.40;98.20;;;;;;6099132;23;21042;-82
2023/12/30 01:13:50;;;;;;;1.60;1.10;;;9.40;98.20;;;;;;6114822;23;20435;-81
2023/12/30 01:16:17;;;;;;;1.60;1.13;;;9.50;98.20;;;;;;6101818;23;20485;-81
2023/12/30 01:18:44;;;;;;;1.60;1.20;;;9.50;98.20;;;;;;6105874;23;20433;-81
2023/12/30 01:21:11;;;;;;;1.60;1.10;;;9.50;98.20;;;;;;6104951;23;20542;-81
2023/12/30 01:23:39;;;;;;;1.60;1.13;;;9.60;98.20;;;;;;6102783;23;20422;-81
2023/12/30 01:26:06;;;;;;;1.60;1.10;;;9.60;98.20;;;;;;6102671;23;20451;-81
2023/12/30 01:28:34;;;;;;;1.60;1.20;;;9.60;98.20;;;;;;6100813;23;20513;-80
2023/12/30 01:31:00;;;;;;;1.60;1.10;;;9.60;98.20;;;;;;6105683;23;20453;-81
2023/12/30 01:33:27;;;;;;;1.60;1.20;;;9.60;98.20;;;;;;6099170;23;20418;-80
2023/12/30 01:35:55;;;;;;;1.60;1.20;;;9.60;98.20;;;;;;6105739;23;20927;-80
2023/12/30 01:38:22;;;;;;;1.60;1.10;;;9.60;98.20;;;;;;6097250;23;20509;-81
2023/12/30 01:40:50;;;;;;;1.60;1.10;;;9.60;98.20;;;;;;6109056;23;20506;-80
2023/12/30 01:43:24;;;;;;;1.60;1.10;;;9.50;98.20;;;;;;6096116;23;20768;-80
2023/12/30 01:45:52;;;;;;;1.60;1.10;;;9.50;98.20;;;;;;6105825;23;20422;-81
2023/12/30 01:48:19;;;;;;;1.60;1.20;;;9.50;98.20;;;;;;6098823;23;20960;-80
2023/12/30 01:50:47;;;;;;;1.60;1.10;;;9.50;98.20;;;;;;6122265;23;20958;-81
2023/12/30 01:53:16;;;;;;;1.60;1.20;;;9.40;98.20;;;;;;6082641;23;20516;-80
2023/12/30 01:55:43;;;;;;;1.60;1.10;;;9.40;98.20;;;;;;6120573;23;20424;-81
2023/12/30 01:58:12;;;;;;;1.60;1.20;;;9.40;98.20;;;;;;6083261;23;20649;-80
2023/12/30 02:00:40;;;;;;;1.60;1.20;;;9.30;98.20;;;;;;6123726;23;20513;-81
2023/12/30 02:03:07;;;;;;;1.60;1.20;;;9.30;98.20;;;;;;6084021;23;20446;-80
2023/12/30 02:05:36;;;;;;;1.60;1.10;;;9.20;98.20;;;;;;6125805;23;20965;-81
2023/12/30 02:08:03;;;;;;;1.60;1.10;;;9.20;98.20;;;;;;6089450;23;20481;-81
2023/12/30 02:10:30;;;;;;;1.60;1.27;;;9.20;98.20;;;;;;6127691;23;20541;-80
2023/12/30 02:12:57;;;;;;;1.60;1.20;;;9.20;98.20;;;;;;6086358;23;20562;-81
2023/12/30 02:15:25;;;;;;;1.60;1.20;;;9.20;98.20;;;;;;6124958;23;20421;-80
2023/12/30 02:17:55;;;;;;;1.60;1.10;;;9.10;98.20;;;;;;6083815;23;20461;-81
2023/12/30 02:20:22;;;;;;;1.60;1.20;;;9.10;98.20;;;;;;6126103;23;20777;-80
2023/12/30 02:22:50;;;;;;;1.60;1.20;;;9.10;98.20;;;;;;6083681;23;20446;-80
2023/12/30 02:25:17;;;;;;;1.60;1.20;;;9.00;98.20;;;;;;6123032;23;20461;-81
2023/12/30 02:27:45;;;;;;;1.60;1.20;;;9.00;98.20;;;;;;6084597;23;20517;-81
2023/12/30 02:30:12;;;;;;;1.60;1.20;;;9.00;98.20;;;;;;6124797;23;20543;-81
2023/12/30 02:32:39;;;;;;;1.60;1.20;;;9.00;98.20;;;;;;6085696;23;21054;-81
2023/12/30 02:35:06;;;;;;;1.60;1.20;;;9.00;98.20;;;;;;6121903;23;20529;-81
2023/12/30 02:37:33;;;;;;;1.60;1.20;;;9.00;98.20;;;;;;6087024;23;20534;-81
2023/12/30 02:40:01;;;;;;;1.60;1.17;;;9.00;98.20;;;;;;6120823;23;20466;-80
2023/12/30 02:42:28;;;;;;;1.60;1.20;;;9.00;98.20;;;;;;6087910;23;20450;-80
2023/12/30 02:44:55;;;;;;;1.60;1.10;;;9.00;98.20;;;;;;6118999;23;20454;-81
2023/12/30 02:47:22;;;;;;;1.60;1.20;;;9.00;98.20;;;;;;6090698;23;20537;-81
2023/12/30 02:49:49;;;;;;;1.60;1.20;;;9.10;98.20;;;;;;6119279;23;20450;-81
2023/12/30 02:52:15;;;;;;;1.60;1.20;;;9.00;98.20;;;;;;6091808;23;20472;-82
2023/12/30 02:54:42;;;;;;;1.60;1.20;;;9.00;98.20;;;;;;6116290;23;20513;-81
2023/12/30 02:57:10;;;;;;;1.60;1.10;;;9.00;98.20;;;;;;6090799;23;20457;-81
2023/12/30 02:59:37;;;;;;;1.60;1.20;;;9.00;98.20;;;;;;6116047;23;20862;-80
2023/12/30 03:02:04;;;;;;;1.60;1.20;;;9.00;98.20;;;;;;6091650;23;20614;-81
2023/12/30 03:04:31;;;;;;;1.60;1.10;;;9.00;98.20;;;;;;6113597;23;20425;-80
2023/12/30 03:06:57;;;;;;;1.60;1.10;;;9.00;98.20;;;;;;6098547;23;20469;-81
2023/12/30 03:09:25;;;;;;;1.60;1.20;;;9.10;98.20;;;;;;6122587;23;20468;-81
2023/12/30 03:11:51;;;;;;;1.60;1.13;;;9.10;98.20;;;;;;6100015;23;20474;-81
2023/12/30 03:14:20;;;;;;;1.60;1.10;;;9.10;98.20;;;;;;6109785;23;20458;-81
2023/12/30 03:16:47;;;;;;;1.60;1.10;;;9.10;98.20;;;;;;6100376;23;20454;-81
2023/12/30 03:19:14;;;;;;;1.60;1.10;;;9.10;98.20;;;;;;6111701;23;20504;-81
2023/12/30 03:21:41;;;;;;;1.60;1.20;;;9.10;98.20;;;;;;6096404;23;20455;-81
2023/12/30 03:24:08;;;;;;;1.60;1.20;;;9.00;98.20;;;;;;6118128;23;20432;-81
2023/12/30 03:26:34;;;;;;;1.60;1.17;;;9.00;98.20;;;;;;6099250;23;20490;-81
2023/12/30 03:29:01;;;;;;;1.60;1.20;;;9.00;98.20;;;;;;6109608;23;20516;-81
2023/12/30 03:31:30;;;;;;;1.60;1.20;;;8.90;98.20;;;;;;6100315;23;20526;-81
2023/12/30 03:33:57;;;;;;;1.60;1.20;;;8.90;98.20;;;;;;6108388;23;20981;-81
2023/12/30 03:36:24;;;;;;;1.60;1.20;;;8.90;98.20;;;;;;6108117;23;20982;-81
2023/12/30 03:38:54;;;;;;;1.60;1.30;;;8.80;98.20;;;;;;6107366;23;20558;-81
2023/12/30 03:41:21;;;;;;;1.60;1.20;;;8.80;98.20;;;;;;6102220;23;21042;-81
2023/12/30 03:43:48;;;;;;;1.60;1.20;;;8.80;98.20;;;;;;6104751;23;20457;-80
2023/12/30 03:46:15;;;;;;;1.60;1.20;;;8.80;98.20;;;;;;6103436;23;20470;-80
2023/12/30 03:48:44;;;;;;;1.60;1.20;;;8.80;98.20;;;;;;6104342;23;20445;-80
2023/12/30 03:51:10;;;;;;;1.60;1.20;;;8.80;98.20;;;;;;6102908;23;20530;-80
2023/12/30 03:53:37;;;;;;;1.60;1.10;;;8.80;98.20;;;;;;6102768;23;20798;-81
2023/12/30 03:56:05;;;;;;;1.60;1.20;;;8.80;98.20;;;;;;6105249;23;20485;-81
2023/12/30 03:58:32;;;;;;;1.60;1.10;;;8.80;98.20;;;;;;6103224;23;20458;-80
2023/12/30 04:00:59;;;;;;;1.60;1.20;;;8.70;98.20;;;;;;6106780;23;20684;-81
2023/12/30 04:03:26;;;;;;;1.60;1.20;;;8.70;98.20;;;;;;6100331;23;20417;-81
2023/12/30 04:05:54;;;;;;;1.60;1.20;;;8.70;98.20;;;;;;6117391;23;20492;-81
2023/12/30 04:08:21;;;;;;;1.60;1.20;;;8.70;98.20;;;;;;6100029;23;20445;-81
2023/12/30 04:10:47;;;;;;;1.60;1.10;;;8.70;98.20;;;;;;6112069;23;20492;-81
2023/12/30 04:13:15;;;;;;;1.60;1.20;;;8.80;98.20;;;;;;6099230;23;20461;-81
2023/12/30 04:15:42;;;;;;;1.60;1.10;;;8.80;98.20;;;;;;6124251;23;20966;-80
2023/12/30 04:18:08;;;;;;;1.60;1.20;;;8.80;98.20;;;;;;6082702;23;20489;-80
2023/12/30 04:20:35;;;;;;;1.60;1.10;;;8.80;98.20;;;;;;6121463;23;20474;-81
2023/12/30 04:23:04;;;;;;;1.60;1.17;;;8.80;98.20;;;;;;6088957;23;20447;-80
2023/12/30 04:25:31;;;;;;;1.60;1.20;;;8.80;98.20;;;;;;6134118;23;20414;-80
2023/12/30 04:27:59;;;;;;;1.60;1.20;;;8.70;98.20;;;;;;6080604;23;20458;-81
2023/12/30 04:30:26;;;;;;;1.60;1.20;;;8.70;98.20;;;;;;6123273;23;20474;-81
2023/12/30 04:32:53;;;;;;;1.60;1.20;;;8.70;98.20;;;;;;6082501;23;20529;-80
2023/12/30 04:35:20;;;;;;;1.60;1.20;;;8.70;98.20;;;;;;6131188;23;20487;-80
2023/12/30 04:37:47;;;;;;;1.60;1.20;;;8.60;98.20;;;;;;6085525;23;20553;-81
2023/12/30 04:40:15;;;;;;;1.60;1.27;;;8.60;98.20;;;;;;6124670;23;20521;-80
2023/12/30 04:42:42;;;;;;;1.60;1.30;;;8.60;98.20;;;;;;6084512;23;20887;-80
2023/12/30 04:45:12;;;;;;;1.60;1.20;;;8.70;98.20;;;;;;6120492;23;20500;-80
2023/12/30 04:47:40;;;;;;;1.60;1.20;;;8.70;98.20;;;;;;6086483;23;20574;-80
2023/12/30 04:50:08;;;;;;;1.60;1.20;;;8.80;98.20;;;;;;6121187;23;20460;-81
2023/12/30 04:52:35;;;;;;;1.60;1.20;;;8.80;98.20;;;;;;6084938;23;20898;-80
2023/12/30 04:55:02;;;;;;;1.60;1.20;;;8.80;98.20;;;;;;6114946;23;20603;-82
2023/12/30 04:57:31;;;;;;;1.60;1.10;;;8.70;98.20;;;;;;6086465;23;20450;-81
2023/12/30 04:59:57;;;;;;;1.60;1.20;;;8.70;98.20;;;;;;6130340;23;20457;-80
2023/12/30 05:02:24;;;;;;;1.60;1.20;;;8.70;98.20;;;;;;6088781;23;20542;-81
2023/12/30 05:04:51;;;;;;;1.60;1.10;;;8.70;98.20;;;;;;6118934;23;20417;-80
2023/12/30 05:07:18;;;;;;;1.60;1.20;;;8.70;98.20;;;;;;6088678;23;20454;-81
2023/12/30 05:09:44;;;;;;;1.60;1.27;;;8.60;98.20;;;;;;6119133;23;20989;-81
2023/12/30 05:12:11;;;;;;;1.60;1.20;;;8.60;98.20;;;;;;6092292;23;20446;-81
2023/12/30 05:14:39;;;;;;;1.60;1.20;;;8.60;98.20;;;;;;6115437;23;20496;-81
2023/12/30 05:17:06;;;;;;;1.60;1.20;;;8.50;98.20;;;;;;6091257;23;20450;-80
2023/12/30 05:19:33;;;;;;;1.60;1.20;;;8.50;98.20;;;;;;6123201;23;20881;-81
2023/12/30 05:22:04;;;;;;;1.60;1.23;;;8.50;98.20;;;;;;6091995;23;20458;-81
2023/12/30 05:24:31;;;;;;;1.60;1.30;;;8.60;98.20;;;;;;6124554;23;20425;-81
2023/12/30 05:26:58;;;;;;;1.60;1.20;;;8.60;98.20;;;;;;6093289;23;20455;-81
2023/12/30 05:29:25;;;;;;;1.60;1.20;;;8.60;98.20;;;;;;6113349;23;20500;-81
2023/12/30 05:31:54;;;;;;;1.60;1.20;;;8.60;98.20;;;;;;6100260;23;20818;-81
2023/12/30 05:34:20;;;;;;;1.60;1.20;;;8.60;98.20;;;;;;6113171;23;20449;-82
2023/12/30 05:36:47;;;;;;;1.60;1.20;;;8.60;98.20;;;;;;6097502;23;20458;-81
2023/12/30 05:39:15;;;;;;;1.60;1.20;;;8.60;98.20;;;;;;6113886;23;20508;-82
2023/12/30 05:41:42;;;;;;;1.60;1.20;;;8.60;98.20;;;;;;6111246;23;21003;-81
2023/12/30 05:44:09;;;;;;;1.60;1.17;;;8.50;98.20;;;;;;6113179;23;20477;-81
2023/12/30 05:46:36;;;;;;;1.60;1.20;;;8.50;98.20;;;;;;6101571;23;20458;-80
2023/12/30 05:49:05;;;;;;;1.60;1.20;;;8.50;98.20;;;;;;6111078;23;21156;-81
2023/12/30 05:51:32;;;;;;;1.63;1.30;;;8.40;98.20;;;;;;6099786;23;20529;-81
2023/12/30 05:53:59;;;;;;;1.60;1.20;;;8.40;98.20;;;;;;6108394;23;20421;-81
2023/12/30 05:56:26;;;;;;;1.60;1.23;;;8.40;98.20;;;;;;6102409;23;20446;-81
2023/12/30 05:58:53;;;;;;;1.60;1.20;;;8.40;98.20;;;;;;6108540;23;20425;-81
2023/12/30 06:01:20;;;;;;;1.60;1.20;;;8.40;98.20;;;;;;6104100;23;20525;-81
2023/12/30 06:03:47;;;;;;;1.60;1.20;;;8.30;98.20;;;;;;6106278;23;20486;-80
2023/12/30 06:06:15;;;;;;;1.60;1.20;;;8.30;98.20;;;;;;6103509;23;20481;-81
2023/12/30 06:08:42;;;;;;;1.60;1.20;;;8.30;98.20;;;;;;6105951;23;20501;-81
2023/12/30 06:11:09;;;;;;;1.63;1.30;;;8.30;98.20;;;;;;6106371;23;20451;-81
2023/12/30 06:13:39;;;;;;;1.60;1.20;;;8.30;98.20;;;;;;6104969;23;20998;-81
2023/12/30 06:16:08;;;;;;;1.63;1.30;;;8.30;98.20;;;;;;6105670;23;20421;-81
2023/12/30 06:18:35;;;;;;;1.60;1.20;;;8.30;98.20;;;;;;6104811;23;20422;-81
2023/12/30 06:21:04;;;;;;;1.60;1.20;;;8.30;98.20;;;;;;6104698;23;20742;-81
2023/12/30 06:23:32;;;;;;;1.60;1.20;;;8.30;98.20;;;;;;6113894;23;20848;-81
2023/12/30 06:26:00;;;;;;;1.60;1.20;;;8.40;98.20;;;;;;6107360;23;20417;-81
2023/12/30 06:28:27;;;;;;;1.60;1.20;;;8.30;98.20;;;;;;6104106;23;20471;-81
2023/12/30 06:30:54;;;;;;;1.60;1.23;;;8.40;98.20;;;;;;6108619;23;20884;-81
2023/12/30 06:33:23;;;;;;;1.60;1.27;;;8.40;98.20;;;;;;6102312;23;20500;-81
2023/12/30 06:35:50;;;;;;;1.60;1.20;;;8.40;98.20;;;;;;6111221;23;20418;-81
2023/12/30 06:40:53;;;;;;;1.60;1.20;;;8.40;98.20;;;;;;6147569;23;20421;-82
2023/12/30 06:43:20;;;;;;;1.60;1.20;;;8.40;98.20;;;;;;6180559;23;20822;-80
2023/12/30 06:45:46;;;;;;;1.60;1.20;;;8.50;98.20;;;;;;6154504;23;20667;-81
2023/12/30 06:48:13;;;;;;;1.60;1.10;;;8.50;98.20;;;;;;6184746;23;20439;-81
2023/12/30 06:50:40;;;;;;;1.60;1.20;;;8.50;98.20;;;;;;6134021;23;20518;-84
2023/12/30 06:53:07;;;;;;;1.60;1.20;;;8.60;98.20;;;;;;6142328;23;20663;-83
2023/12/30 06:55:34;;;;;;;1.60;1.20;;;8.60;98.20;;;;;;6131008;23;20508;-82
2023/12/30 06:58:03;;;;;;;1.60;1.10;;;8.60;98.20;;;;;;6142987;23;20463;-81
2023/12/30 07:00:30;;;;;;;1.60;1.20;;;8.60;98.20;;;;;;6133596;23;20473;-82
2023/12/30 07:02:57;;;;;;;1.60;1.20;;;8.60;98.20;;;;;;6135890;23;20449;-83
2023/12/30 07:05:24;;;;;;;1.60;1.20;;;8.70;98.20;;;;;;6133338;23;20426;-86
2023/12/30 07:07:51;;;;;;;1.60;1.10;;;8.70;98.20;;;;;;6141618;23;20455;-83
2023/12/30 07:10:18;;;;;;;1.60;1.20;;;8.70;98.20;;;;;;6133761;23;20446;-84
2023/12/30 07:12:45;;;;;;;1.60;1.20;;;8.70;98.20;;;;;;6141425;23;20657;-82
2023/12/30 07:15:13;;;;;;;1.60;1.20;;;8.60;98.20;;;;;;6129945;23;20436;-81
2023/12/30 07:17:40;;;;;;;1.60;1.10;;;8.60;98.20;;;;;;6140200;23;20476;-81
2023/12/30 07:20:08;;;;;;;1.60;1.20;;;8.60;98.20;;;;;;6131049;23;20523;-81
2023/12/30 07:22:35;;;;;;;1.60;1.20;;;8.50;98.20;;;;;;6138502;23;20547;-81
2023/12/30 07:25:02;;;;;;;1.60;1.17;;;8.50;98.20;;;;;;6133062;23;20521;-83
2023/12/30 07:27:29;;;;;;;1.60;1.20;;;8.50;98.20;;;;;;6135698;23;20992;-83
2023/12/30 07:29:57;;;;;;;1.60;1.20;;;8.50;98.20;;;;;;6134394;23;20520;-80
2023/12/30 07:32:25;;;;;;;1.63;1.20;;;8.50;98.20;;;;;;6134858;23;20512;-84
2023/12/30 07:34:52;;;;;;;5.10;3.17;;;8.50;98.20;;;;;;6133780;23;20481;-83
2023/12/30 07:37:19;;;;;;;1.60;1.20;;;8.60;98.20;;;;;;6130231;23;20471;-79
2023/12/30 07:39:45;;;;;;;1.60;1.30;;;8.60;98.20;;;;;;6145406;23;20548;-85
2023/12/30 07:42:12;;;;;;;1.60;1.20;;;8.60;98.20;;;;;;6133146;23;21089;-83
2023/12/30 07:47:22;;;;;;;1.60;1.10;;;8.60;98.20;;;;;;6123879;23;20821;-80
2023/12/30 07:49:50;;;;;;;1.60;1.10;;;8.60;98.20;;;;;;6128371;23;20448;-80
2023/12/30 07:52:17;;;;;;;1.60;1.20;;;8.60;98.20;;;;;;6127534;23;20449;-80
2023/12/30 07:54:44;;;;;;;1.60;1.20;;;8.60;98.20;;;;;;6131235;23;20665;-81
2023/12/30 07:57:11;;;;;;;1.60;1.20;;;8.60;98.20;;;;;;6130281;23;20537;-80
2023/12/30 07:59:38;;;;;;;1.60;1.13;;;8.60;98.20;;;;;;6136378;23;20437;-83
2023/12/30 08:02:04;;;;;;;1.60;1.23;;;8.70;98.20;;;;;;6127839;23;20713;-81
2023/12/30 08:04:31;;;;;;;1.60;1.13;;;8.70;98.20;;;;;;6134617;23;20424;-80
2023/12/30 08:06:59;;;;;;;1.60;1.27;;;8.70;98.20;;;;;;6125833;23;20611;-81
2023/12/30 08:09:26;;;;;;;1.60;1.20;;;8.70;98.20;;;;;;6137052;23;20437;-81
2023/12/30 08:11:53;;;;;;;1.60;1.20;;;8.70;98.20;;;;;;6124847;23;20459;-82
2023/12/30 08:14:20;;;;;;;1.60;1.20;;;8.70;98.20;;;;;;6136439;23;20433;-81
2023/12/30 08:16:46;;;;;;;1.60;1.10;;;8.70;98.20;;;;;;6123500;23;20476;-81
2023/12/30 08:19:13;;;;;;;1.60;1.13;;;8.70;98.20;;;;;;6139257;23;20532;-82
2023/12/30 08:21:40;;;;;;;1.60;1.10;;;8.70;98.20;;;;;;6126518;23;20436;-80
2023/12/30 08:24:10;;;;;;;1.60;1.20;;;8.80;98.20;;;;;;6142813;23;20425;-83
2023/12/30 08:26:37;;;;;;;1.60;1.10;;;8.80;98.20;;;;;;6123714;23;20449;-82
2023/12/30 08:29:05;;;;;;;1.60;1.30;;;8.80;98.20;;;;;;6140094;23;20445;-79
2023/12/30 08:31:35;;;;;;;1.60;1.10;;;8.80;98.20;;;;;;6117172;23;20496;-78
2023/12/30 08:34:02;;;;;;;1.60;1.20;;;8.90;98.20;;;;;;6138863;23;20428;-82
2023/12/30 08:36:29;;;;;;;1.60;1.17;;;8.90;98.20;;;;;;6122805;23;20587;-79
2023/12/30 08:38:56;;;;;;;1.60;1.10;;;8.90;98.20;;;;;;6142414;23;20798;-81
2023/12/30 08:41:27;;;;;;;1.60;1.10;;;9.00;98.20;;;;;;6120333;23;20512;-81
2023/12/30 08:43:55;;;;;;;1.60;1.10;;;9.00;98.20;;;;;;6142358;23;20492;-82
2023/12/30 08:46:22;;;;;;;1.60;1.20;;;9.00;98.20;;;;;;6117036;23;20445;-79
2023/12/30 08:48:49;;;;;;;1.60;1.13;;;9.00;98.20;;;;;;6137866;23;20438;-79
2023/12/30 08:51:16;;;;;;;1.60;1.20;;;9.00;98.20;;;;;;6115023;23;20981;-79
2023/12/30 08:53:43;;;;;;;1.60;1.20;;;9.10;98.20;;;;;;6140058;23;20751;-79
2023/12/30 08:56:09;;;;;;;1.60;1.20;;;9.00;98.20;;;;;;6119792;23;21135;-82
2023/12/30 08:58:38;;;;;;;1.60;1.30;;;9.10;98.20;;;;;;6143304;23;20541;-81
2023/12/30 09:01:05;;;;;;;1.60;1.10;;;9.10;98.20;;;;;;6115295;23;20485;-81
2023/12/30 09:03:32;;;;;;;1.60;1.20;;;9.10;98.20;;;;;;6146846;23;20513;-80
2023/12/30 09:05:59;;;;;;;1.60;1.20;;;9.10;98.20;;;;;;6115332;23;20449;-80
2023/12/30 09:08:26;;;;;;;1.60;1.10;;;9.10;98.20;;;;;;6147547;23;20424;-82
2023/12/30 09:10:53;;;;;;;1.60;1.10;;;9.10;98.20;;;;;;6113108;23;20834;-80
2023/12/30 09:13:20;;;;;;;1.60;1.10;;;9.20;98.20;;;;;;6147418;23;20446;-80
2023/12/30 09:15:48;;;;;;;1.60;1.10;;;9.20;98.20;;;;;;6119997;23;20460;-79
2023/12/30 09:18:15;;;;;;;1.60;1.10;;;9.20;98.20;;;;;;6144966;23;20430;-79
2023/12/30 09:20:42;;;;;;;1.60;1.20;;;9.30;98.20;;;;;;6120772;23;20758;-79
2023/12/30 09:23:09;;;;;;;1.60;1.20;;;9.30;98.20;;;;;;6132677;23;20544;-81
2023/12/30 09:25:36;;;;;;;1.60;1.20;;;9.40;98.20;;;;;;6124399;23;20426;-80
2023/12/30 09:28:03;;;;;;;1.60;1.20;;;9.40;98.20;;;;;;6132779;23;20528;-80
2023/12/30 09:30:30;;;;;;;1.60;1.30;;;9.40;98.20;;;;;;6135523;23;20438;-80
2023/12/30 09:32:58;;;;;;;1.60;1.20;;;9.50;98.20;;;;;;6133593;23;20468;-80
2023/12/30 09:35:25;;;;;;;1.60;1.20;;;9.50;98.20;;;;;;6121522;23;20421;-81
2023/12/30 09:37:52;;;;;;;1.60;1.20;;;9.50;98.20;;;;;;6133590;23;20511;-80
2023/12/30 09:40:19;;;;;;;1.60;1.10;;;9.50;98.20;;;;;;6123870;23;20467;-81
2023/12/30 09:42:50;;;;;;;1.60;1.10;;;9.60;98.20;;;;;;6133735;23;20445;-81
2023/12/30 09:45:17;;;;;;;1.60;1.10;;;9.60;98.20;;;;;;6135566;23;20483;-79
2023/12/30 09:47:46;;;;;;;1.60;1.10;;;9.60;98.20;;;;;;6132426;23;20448;-81
2023/12/30 09:50:14;;;;;;;1.70;1.50;;;9.60;98.20;;;;;;6126599;23;20823;-81
2023/12/30 09:52:52;;;;;;;1.60;1.10;;;9.70;98.20;;;;;;6064147;23;20475;-80
2023/12/30 09:55:19;;;;;;;1.60;1.10;;;9.70;98.20;;;;;;6067613;23;20491;-81
2023/12/30 09:57:46;;;;;;;1.60;1.10;;;9.70;98.20;;;;;;6133527;23;20539;-81
2023/12/30 10:00:19;;;;;;;1.60;1.10;;;9.80;98.20;;;;;;6127460;23;20473;-80
2023/12/30 10:02:46;;;;;;;1.60;1.00;;;9.80;98.20;;;;;;6134465;23;20445;-81
2023/12/30 10:05:16;;;;;;;1.60;1.10;;;9.90;98.20;;;;;;6134638;23;20767;-81
2023/12/30 10:07:42;;;;;;;1.60;1.10;;;9.90;98.20;;;;;;6131635;23;20787;-81
2023/12/30 10:10:10;;;;;;;1.60;1.10;;;10.00;98.20;;;;;;6133835;23;20524;-81
2023/12/30 10:12:37;;;;;;;1.60;1.10;;;10.00;98.20;;;;;;6133564;23;20452;-81
2023/12/30 10:15:06;;;;;;;3.33;3.10;;;10.10;98.20;;;;;;6125001;23;20438;-80
2023/12/30 10:17:33;;;;;;;1.60;1.10;;;10.10;98.20;;;;;;6131043;23;20445;-80
2023/12/30 10:20:00;;;;;;;1.60;1.07;;;10.10;98.20;;;;;;6139588;23;20447;-80
2023/12/30 10:22:29;;;;;;;1.60;1.10;;;10.20;98.20;;;;;;6134639;23;20504;-80
2023/12/30 10:24:56;;;;;;;1.60;1.10;;;10.30;98.20;;;;;;6130076;23;20426;-81
2023/12/30 10:27:22;;;;;;;1.60;1.17;;;10.30;98.20;;;;;;6133558;23;20507;-80
2023/12/30 10:29:54;;;;;;;1.60;1.10;;;10.30;98.20;;;;;;6131295;23;20560;-79
2023/12/30 10:32:22;;;;;;;1.60;1.10;;;10.40;98.20;;;;;;6128785;23;21044;-81
2023/12/30 10:34:48;;;;;;;1.60;1.10;;;10.50;98.20;;;;;;6127054;23;20418;-81
2023/12/30 10:37:16;;;;;;;1.60;1.10;;;10.50;98.20;;;;;;6130349;23;20491;-81
2023/12/30 10:39:48;;;;;;;1.60;1.10;;;10.60;98.20;;;;;;6132935;23;20453;-81
2023/12/30 10:42:15;;;;;;;1.60;1.10;;;10.60;98.20;;;;;;6129456;23;20479;-82
2023/12/30 10:44:42;;;;;;;1.60;1.10;;;10.70;98.20;;;;;;6131382;23;20418;-80
2023/12/30 10:47:15;;;;;;;1.60;1.20;;;10.70;98.20;;;;;;6127368;23;20453;-79
2023/12/30 10:49:49;;;;;;;1.60;1.13;;;10.70;98.20;;;;;;6126376;23;20796;-79
2023/12/30 10:52:21;;;;;;;1.60;1.10;;;10.80;98.20;;;;;;6126933;23;20546;-80
2023/12/30 10:54:57;;;;;;;1.60;1.07;;;10.80;98.20;;;;;;6135354;23;20422;-82
2023/12/30 10:57:30;;;;;;;1.60;1.10;;;10.80;98.20;;;;;;6127889;23;20539;-83
2023/12/30 10:59:59;;;;;;;1.60;1.10;;;10.80;98.20;;;;;;6130081;23;20853;-80
2023/12/30 11:02:26;;;;;;;1.60;1.20;;;10.80;98.20;;;;;;6128362;23;21056;-79
2023/12/30 11:04:54;;;;;;;1.60;1.20;;;10.80;98.20;;;;;;6140896;23;20555;-81
2023/12/30 11:07:22;;;;;;;1.60;1.10;;;10.80;98.20;;;;;;6130519;23;20472;-81
2023/12/30 11:09:50;;;;;;;1.60;1.10;;;10.80;98.20;;;;;;6130877;23;20437;-81
2023/12/30 11:12:17;;;;;;;1.60;1.03;;;10.80;98.20;;;;;;6130190;23;20441;-80
2023/12/30 11:14:44;;;;;;;1.60;1.07;;;10.80;98.20;;;;;;6129783;23;20939;-79
2023/12/30 11:17:31;;;;;;;1.60;1.10;;;10.80;98.20;;;;;;6126177;23;20500;-79
2023/12/30 11:20:27;;;;;;;1.60;1.10;;;10.80;98.20;;;;;;6127887;23;20441;-80
2023/12/30 11:22:55;;;;;;;1.60;1.00;;;10.70;98.20;;;;;;6133143;23;20701;-80
2023/12/30 11:25:34;;;;;;;1.60;1.00;;;10.80;98.20;;;;;;6118023;23;20426;-79
2023/12/30 11:28:17;;;;;;;1.57;1.03;;;10.80;98.20;;;;;;6130221;23;20453;-82
2023/12/30 11:30:45;;;;;;;1.57;1.07;;;10.80;98.20;;;;;;6131481;23;20410;-81
2023/12/30 11:33:13;;;;;;;1.53;1.00;;;10.80;98.20;;;;;;6104628;23;20889;-80
2023/12/30 11:35:41;;;;;;;1.53;1.10;;;10.90;98.20;;;;;;6121106;23;20422;-79
2023/12/30 11:38:12;;;;;;;1.60;1.10;;;10.90;98.20;;;;;;6128012;23;20456;-81
2023/12/30 11:40:43;;;;;;;1.60;1.00;;;10.90;98.20;;;;;;6121799;23;20450;-80
2023/12/30 11:43:11;;;;;;;1.57;1.00;;;11.00;98.20;;;;;;6129802;23;20453;-80
2023/12/30 11:45:38;;;;;;;1.60;1.10;;;11.00;98.20;;;;;;6118680;23;20421;-80
2023/12/30 11:48:06;;;;;;;1.60;1.00;;;11.10;98.20;;;;;;6126643;23;20488;-80
2023/12/30 11:50:33;;;;;;;1.50;1.10;;;11.10;98.20;;;;;;6129109;23;20664;-80
2023/12/30 11:53:01;;;;;;;1.60;1.03;;;11.20;98.20;;;;;;6128623;23;20507;-79
2023/12/30 11:55:29;;;;;;;1.60;1.00;;;11.20;98.20;;;;;;6141384;23;21022;-83
2023/12/30 11:57:58;;;;;;;1.60;1.00;;;11.30;98.20;;;;;;6143320;23;20758;-80
2023/12/30 12:00:26;;;;;;;1.60;1.10;;;11.30;98.20;;;;;;6128474;23;20453;-81
2023/12/30 12:02:54;;;;;;;1.60;1.00;;;11.30;98.20;;;;;;6129554;23;20468;-79
2023/12/30 12:05:22;;;;;;;1.60;1.10;;;11.30;98.20;;;;;;6120188;23;20903;-80
2023/12/30 12:07:49;;;;;;;1.60;1.10;;;11.40;98.20;;;;;;6131392;23;20931;-82
2023/12/30 12:10:16;;;;;;;1.53;1.00;;;11.40;98.20;;;;;;6118727;23;20782;-80
2023/12/30 12:12:45;;;;;;;1.60;1.10;;;11.30;98.20;;;;;;6124949;23;20455;-80
2023/12/30 12:15:14;;;;;;;1.60;1.10;;;11.30;98.20;;;;;;6124765;23;20432;-79
2023/12/30 12:17:41;;;;;;;1.60;1.10;;;11.40;98.20;;;;;;6127194;23;20492;-80
2023/12/30 12:20:10;;;;;;;1.57;1.00;;;11.40;98.20;;;;;;6121969;23;20815;-81
2023/12/30 12:22:38;;;;;;;1.57;1.07;;;11.40;98.20;;;;;;6127583;23;20452;-80
2023/12/30 12:25:06;;;;;;;1.60;1.00;;;11.40;98.20;;;;;;6121872;23;20425;-79
2023/12/30 12:27:34;;;;;;;1.57;1.00;;;11.40;98.20;;;;;;6124956;23;20535;-79
2023/12/30 12:30:04;;;;;;;1.60;1.10;;;11.40;98.20;;;;;;6122709;23;20449;-80
2023/12/30 12:32:35;;;;;;;1.60;1.10;;;11.40;98.20;;;;;;6127686;23;20453;-79
2023/12/30 12:35:02;;;;;;;1.53;1.00;;;11.40;98.20;;;;;;6137166;23;20405;-80
2023/12/30 12:37:29;;;;;;;1.57;1.00;;;11.40;98.20;;;;;;6136103;23;20480;-77
2023/12/30 12:39:57;;;;;;;1.53;1.00;;;11.40;98.20;;;;;;6124339;23;20465;-81
2023/12/30 12:42:25;;;;;;;1.60;1.10;;;11.40;98.20;;;;;;6126040;23;20453;-79
2023/12/30 12:44:52;;;;;;;1.57;1.00;;;11.40;98.20;;;;;;6119463;23;20426;-78
2023/12/30 12:47:20;;;;;;;1.60;1.17;;;11.40;98.20;;;;;;6117081;23;20459;-77
2023/12/30 12:49:48;;;;;;;1.50;1.00;;;11.40;98.20;;;;;;6119420;23;20501;-77
2023/12/30 12:52:15;;;;;;;1.53;1.00;;;11.40;98.20;;;;;;6116062;23;20503;-77
2023/12/30 12:54:42;;;;;;;1.57;1.10;;;11.50;98.20;;;;;;6120345;23;20508;-81
2023/12/30 12:57:10;;;;;;;1.50;1.00;;;11.50;98.20;;;;;;6119650;23;20669;-80
2023/12/30 12:59:37;;;;;;;1.60;1.10;;;11.50;98.20;;;;;;6125667;23;20441;-81
2023/12/30 13:02:05;;;;;;;2.47;1.93;;;11.60;98.20;;;;;;6121571;23;20456;-79